Monte Caseros, Argentina
Current Conditions -  °F | °C
As of 5:00 AM on Monday 20 Oct 2014 (Local Time) from SBUG Reporting Station
Few Clouds Few Clouds  
Wind Chill: 57°   Ceiling: Unl
Heat Index: 57°   Visibility: 6mi
Dew Point: 52°   Wind: 3mph
Humidity: 82%   Direction: 150°SSE
Pressure: 30.06"   Gusts: NA
Location:  30.25°S, 57.63°W
Report Text: SBUG 200800Z 15003KT 9999 FEW035 14/11 Q1018
Loading
Personal Weather Stations






























Interactive Weather Map
Tropical Storm Tracking
New forecast layout! Learn more

10-Day Weather Forecast

Advertisements
Track Severe Weather on mobile